Time;durP1;ratioP1;P1;durP2;ratioP2;P2;SDS_P1;SDS_P2;PMS_P1;PMS_P2;Temp;Humidity;BMP_temperature;BMP_pressure;BME280_temperature;BME280_humidity;BME280_pressure;Samples;Min_cycle;Max_cycle;Signal;HPM_P1;HPM_P2
2023/06/08 00:00:26;;;;;;;12.55;7.55;;;;;;;15.88;76.00;101749.03;4990184;28;20029;-84
2023/06/08 00:02:56;;;;;;;15.70;7.50;;;;;;;15.84;76.30;101736.97;5001885;28;20034;-84
2023/06/08 00:05:22;;;;;;;19.25;7.57;;;;;;;15.75;76.54;101735.09;5009620;28;20064;-84
2023/06/08 00:07:48;;;;;;;15.90;7.80;;;;;;;15.75;76.12;101735.09;5009617;28;20490;-84
2023/06/08 00:10:14;;;;;;;14.13;7.30;;;;;;;15.65;75.95;101733.19;5006400;28;20030;-83
2023/06/08 00:12:39;;;;;;;14.88;7.45;;;;;;;15.62;76.41;101727.28;5008359;28;20501;-84
2023/06/08 00:15:06;;;;;;;12.50;7.50;;;;;;;15.53;76.70;101734.13;4995135;28;20033;-83
2023/06/08 00:17:32;;;;;;;12.85;7.10;;;;;;;15.52;77.25;101732.44;4989789;28;20490;-83
2023/06/08 00:19:59;;;;;;;16.42;8.00;;;;;;;15.51;77.68;101729.91;4998410;28;20108;-83
2023/06/08 00:22:34;;;;;;;18.27;8.00;;;;;;;15.50;78.31;101739.69;5004872;28;20022;-83
2023/06/08 00:25:04;;;;;;;18.95;7.95;;;;;;;15.42;79.23;101734.16;4987839;28;20514;-83
2023/06/08 00:27:32;;;;;;;17.98;9.57;;;;;;;15.43;79.24;101737.66;5028488;28;20049;-83
2023/06/08 00:29:57;;;;;;;19.83;9.50;;;;;;;15.31;80.06;101731.53;5017418;28;20036;-83
2023/06/08 00:32:23;;;;;;;20.20;9.68;;;;;;;15.27;80.52;101727.44;5004538;28;20026;-83
2023/06/08 00:34:51;;;;;;;16.17;9.18;;;;;;;15.29;80.66;101730.81;5005168;28;20364;-82
2023/06/08 00:37:20;;;;;;;21.55;9.60;;;;;;;15.23;80.42;101728.66;5007431;28;20029;-82
2023/06/08 00:39:45;;;;;;;20.23;9.45;;;;;;;15.16;81.03;101722.13;5007553;28;20022;-82
2023/06/08 00:42:11;;;;;;;16.02;9.00;;;;;;;15.09;81.26;101721.75;5008057;28;20032;-82
2023/06/08 00:44:37;;;;;;;17.40;9.35;;;;;;;15.16;81.17;101724.78;5008775;28;20398;-83
2023/06/08 00:47:02;;;;;;;19.30;8.80;;;;;;;15.19;81.50;101725.38;5006906;28;20136;-81
2023/06/08 00:49:32;;;;;;;14.77;8.95;;;;;;;15.05;82.03;101717.66;4991203;28;20197;-82
2023/06/08 00:52:01;;;;;;;16.52;9.73;;;;;;;15.08;81.96;101714.78;5004465;28;20035;-81
2023/06/08 00:54:30;;;;;;;16.33;10.05;;;;;;;15.10;81.91;101710.19;5004967;28;20053;-82
2023/06/08 00:57:02;;;;;;;15.15;9.73;;;;;;;15.08;82.21;101708.63;5024098;28;20021;-81
2023/06/08 00:59:30;;;;;;;16.77;9.90;;;;;;;14.99;82.28;101708.41;5001680;28;20041;-81
2023/06/08 01:02:04;;;;;;;18.02;10.38;;;;;;;14.83;83.24;101713.22;5006116;28;20482;-82
2023/06/08 01:04:35;;;;;;;17.95;9.70;;;;;;;14.74;83.65;101701.50;5009369;28;20053;-83
2023/06/08 01:07:16;;;;;;;14.73;9.15;;;;;;;14.71;83.83;101695.63;5006350;28;20021;-81
2023/06/08 01:09:52;;;;;;;21.17;9.88;;;;;;;14.71;84.16;101703.56;5005020;28;20030;-81
2023/06/08 01:12:51;;;;;;;19.08;10.38;;;;;;;14.71;84.03;101703.56;5021570;28;20029;-80
2023/06/08 01:15:23;;;;;;;18.33;10.00;;;;;;;14.63;84.66;101705.97;5002976;28;20522;-83
2023/06/08 01:17:53;;;;;;;19.10;9.60;;;;;;;14.56;84.90;101710.06;5005711;28;20116;-83
2023/06/08 01:20:37;;;;;;;17.83;9.98;;;;;;;14.58;84.67;101713.44;5005824;28;20117;-81
2023/06/08 01:23:20;;;;;;;18.70;9.73;;;;;;;14.63;84.34;101704.16;5003094;28;20038;-84
2023/06/08 01:25:48;;;;;;;18.83;10.18;;;;;;;14.59;84.85;101701.88;5006514;28;20021;-82
2023/06/08 01:28:15;;;;;;;19.23;9.48;;;;;;;14.60;84.79;101695.63;5006692;28;20124;-82
2023/06/08 01:30:42;;;;;;;18.95;9.82;;;;;;;14.56;84.52;101702.13;5007853;28;20017;-85
2023/06/08 01:33:11;;;;;;;19.55;9.90;;;;;;;14.55;85.00;101697.78;5007121;28;20034;-81
2023/06/08 01:35:37;;;;;;;18.90;10.05;;;;;;;14.50;85.06;101700.78;5007520;28;20041;-84
2023/06/08 01:38:11;;;;;;;17.65;10.02;;;;;;;14.50;85.68;101698.13;5009461;28;20025;-84
2023/06/08 01:40:42;;;;;;;18.17;9.85;;;;;;;14.42;85.23;101703.16;5012697;28;20544;-85
2023/06/08 01:43:09;;;;;;;20.25;9.77;;;;;;;14.38;85.77;101699.84;5012595;28;20397;-84
2023/06/08 01:45:45;;;;;;;18.15;10.00;;;;;;;14.34;85.90;101700.22;5009217;28;20053;-81
2023/06/08 01:48:12;;;;;;;19.42;9.60;;;;;;;14.34;85.98;101694.91;5027923;28;20453;-84
2023/06/08 01:50:39;;;;;;;18.75;9.73;;;;;;;14.32;85.99;101691.53;5014302;28;20394;-84
2023/06/08 01:53:05;;;;;;;19.20;9.98;;;;;;;14.24;86.17;101683.34;5009751;28;20072;-80
2023/06/08 01:55:31;;;;;;;18.80;9.52;;;;;;;14.20;86.31;101681.91;5018510;28;20428;-84
2023/06/08 01:57:56;;;;;;;15.70;9.38;;;;;;;14.19;86.33;101683.72;5031367;28;20036;-85
2023/06/08 02:00:25;;;;;;;17.45;9.57;;;;;;;14.15;86.60;101679.59;5029902;28;20842;-84
2023/06/08 02:02:53;;;;;;;21.88;9.65;;;;;;;14.14;86.88;101677.91;5014015;28;20030;-84
2023/06/08 02:05:19;;;;;;;19.42;9.88;;;;;;;14.08;86.95;101683.69;5025514;28;20057;-84
2023/06/08 02:07:45;;;;;;;18.20;9.82;;;;;;;14.03;87.26;101685.84;5010943;28;20025;-84
2023/06/08 02:10:11;;;;;;;18.08;10.98;;;;;;;13.95;87.56;101688.19;5010427;28;20017;-84
2023/06/08 02:12:38;;;;;;;19.13;10.73;;;;;;;13.89;87.90;101688.66;5010504;28;20026;-84
2023/06/08 02:15:03;;;;;;;19.70;10.98;;;;;;;13.88;88.03;101689.59;5010494;28;20421;-84
2023/06/08 02:17:36;;;;;;;19.35;11.02;;;;;;;13.85;88.35;101692.47;5012014;28;20026;-84
2023/06/08 02:20:06;;;;;;;23.20;12.15;;;;;;;13.82;88.23;101688.25;5007678;28;20386;-84
2023/06/08 02:22:36;;;;;;;20.50;10.43;;;;;;;13.80;88.42;101685.72;5008929;28;20487;-84
2023/06/08 02:25:09;;;;;;;19.90;10.10;;;;;;;13.83;88.08;101697.03;5010187;28;20037;-83
2023/06/08 02:27:36;;;;;;;21.00;10.18;;;;;;;13.79;88.12;101691.97;4991342;28;20026;-84
2023/06/08 02:30:06;;;;;;;20.08;11.43;;;;;;;13.71;88.86;101693.50;5008393;28;20116;-81
2023/06/08 02:32:34;;;;;;;19.83;11.27;;;;;;;13.68;89.30;101689.28;5011594;28;20056;-83
2023/06/08 02:35:04;;;;;;;20.50;10.25;;;;;;;13.65;89.34;101696.59;5009659;28;20475;-80
2023/06/08 02:37:30;;;;;;;17.50;10.98;;;;;;;13.62;89.09;101692.38;5008908;28;20133;-83
2023/06/08 02:39:56;;;;;;;21.58;10.85;;;;;;;13.58;89.54;101682.97;5011364;28;20030;-83
2023/06/08 02:42:22;;;;;;;18.00;11.02;;;;;;;13.49;89.87;101694.22;5010284;28;20029;-83
2023/06/08 02:44:47;;;;;;;17.88;10.60;;;;;;;13.44;90.46;101686.63;5011387;28;20028;-83
2023/06/08 02:47:15;;;;;;;20.73;11.00;;;;;;;13.44;90.41;101688.41;5010630;28;20142;-83
2023/06/08 02:49:40;;;;;;;23.45;11.30;;;;;;;13.40;90.48;101693.09;5011067;28;20026;-80
2023/06/08 02:52:06;;;;;;;22.65;10.95;;;;;;;13.34;90.76;101692.69;5010372;28;20025;-80
2023/06/08 02:54:32;;;;;;;21.35;11.32;;;;;;;13.29;91.08;101685.09;5006884;28;20557;-83
2023/06/08 02:56:57;;;;;;;28.10;11.13;;;;;;;13.31;91.20;101687.63;5029370;28;20064;-83
2023/06/08 02:59:23;;;;;;;19.63;11.43;;;;;;;13.23;91.78;101684.69;5030167;28;20045;-83
2023/06/08 03:01:55;;;;;;;19.10;11.90;;;;;;;13.17;92.03;101681.50;5013866;28;20044;-80
2023/06/08 03:04:23;;;;;;;22.33;11.07;;;;;;;13.15;92.00;101693.97;5008086;28;20038;-83
2023/06/08 03:06:55;;;;;;;25.20;11.30;;;;;;;13.16;92.31;101689.53;5010595;28;20497;-84
2023/06/08 03:09:22;;;;;;;21.73;11.25;;;;;;;13.14;92.30;101691.44;5007681;28;20382;-83
2023/06/08 03:11:50;;;;;;;22.85;11.25;;;;;;;13.05;92.71;101687.66;4992952;28;20026;-83
2023/06/08 03:14:18;;;;;;;19.23;11.40;;;;;;;13.01;93.04;101691.47;4994106;28;20030;-84
2023/06/08 03:16:44;;;;;;;21.50;11.38;;;;;;;12.98;92.98;101680.28;5009971;28;20025;-81
2023/06/08 03:19:10;;;;;;;18.85;11.60;;;;;;;12.98;93.34;101683.75;5010308;28;20022;-81
2023/06/08 03:21:36;;;;;;;20.35;11.43;;;;;;;12.89;93.88;101684.41;5009986;28;20025;-80
2023/06/08 03:24:03;;;;;;;21.05;12.07;;;;;;;12.85;94.00;101685.59;5020052;28;20390;-81
2023/06/08 03:26:28;;;;;;;20.65;11.73;;;;;;;12.83;93.98;101679.56;5007751;28;20389;-84
2023/06/08 03:28:53;;;;;;;21.83;11.70;;;;;;;12.77;94.49;101685.25;5011091;28;20033;-84
2023/06/08 03:31:20;;;;;;;24.17;12.20;;;;;;;12.76;94.36;101692.31;5010429;28;20410;-81
2023/06/08 03:33:46;;;;;;;21.63;11.82;;;;;;;12.77;94.47;101685.25;5010920;28;20386;-81
2023/06/08 03:36:12;;;;;;;21.98;12.63;;;;;;;12.71;94.73;101688.31;5010509;28;20036;-81
2023/06/08 03:38:38;;;;;;;21.20;12.77;;;;;;;12.70;94.93;101686.63;5008522;28;20017;-84
2023/06/08 03:41:07;;;;;;;21.95;11.43;;;;;;;12.72;95.29;101687.38;5007413;28;20132;-81
2023/06/08 03:43:34;;;;;;;22.63;11.85;;;;;;;12.66;95.30;101691.28;4993334;28;20089;-85
2023/06/08 03:46:02;;;;;;;22.02;12.68;;;;;;;12.65;95.61;101686.09;5006004;28;20054;-85
2023/06/08 03:48:32;;;;;;;24.50;12.30;;;;;;;12.62;95.96;101688.97;4989998;28;20023;-81
2023/06/08 03:50:57;;;;;;;26.13;13.05;;;;;;;12.56;96.00;101677.03;4989884;28;20132;-84
2023/06/08 03:53:22;;;;;;;20.60;12.88;;;;;;;12.54;96.28;101681.56;4990051;28;20072;-84
2023/06/08 03:55:54;;;;;;;27.27;13.57;;;;;;;12.55;96.41;101683.25;5008779;28;20029;-84
2023/06/08 03:58:21;;;;;;;25.67;12.93;;;;;;;12.49;96.40;101673.97;5006031;28;20037;-84
2023/06/08 04:00:49;;;;;;;23.15;13.00;;;;;;;12.51;96.34;101674.72;5006371;28;20024;-84
2023/06/08 04:03:14;;;;;;;21.80;12.80;;;;;;;12.57;96.67;101680.50;4990056;28;20455;-85
2023/06/08 04:05:40;;;;;;;20.40;12.77;;;;;;;12.59;96.97;101683.91;5005337;28;20112;-84
2023/06/08 04:08:06;;;;;;;23.73;13.13;;;;;;;12.64;96.44;101676.50;5009300;28;20414;-84
2023/06/08 04:10:31;;;;;;;24.17;13.32;;;;;;;12.61;96.50;101679.34;5009679;28;20026;-84
2023/06/08 04:13:12;;;;;;;21.60;12.07;;;;;;;12.63;96.57;101685.38;5007725;28;20068;-85
2023/06/08 04:15:38;;;;;;;18.80;12.07;;;;;;;12.58;96.56;101682.22;5012070;28;20116;-84
2023/06/08 04:18:05;;;;;;;20.67;12.90;;;;;;;12.60;96.81;101682.94;4992702;28;20033;-84
2023/06/08 04:20:32;;;;;;;19.83;12.63;;;;;;;12.58;96.88;101682.22;4989418;28;20059;-82
2023/06/08 04:22:58;;;;;;;20.33;12.93;;;;;;;12.60;96.57;101670.59;4998215;28;20379;-82
2023/06/08 04:25:26;;;;;;;24.75;14.45;;;;;;;12.59;96.66;101673.34;5011639;28;20030;-84
2023/06/08 04:28:00;;;;;;;25.88;13.52;;;;;;;12.61;96.78;101676.72;5028787;28;20064;-83
2023/06/08 04:30:26;;;;;;;20.45;13.27;;;;;;;12.60;96.72;101677.66;5019114;28;20033;-85
2023/06/08 04:32:52;;;;;;;25.20;14.27;;;;;;;12.57;96.60;101669.97;5009338;28;20505;-84
2023/06/08 04:35:17;;;;;;;29.00;13.52;;;;;;;12.61;97.01;101679.34;4997674;28;20026;-84
2023/06/08 04:37:43;;;;;;;21.95;13.80;;;;;;;12.64;96.92;101676.50;4989493;28;20034;-82
2023/06/08 04:40:09;;;;;;;25.10;13.10;;;;;;;12.66;96.62;101674.59;4989548;28;20054;-84
2023/06/08 04:42:38;;;;;;;19.63;13.43;;;;;;;12.67;96.63;101671.84;4989438;28;20036;-84
2023/06/08 04:45:04;;;;;;;27.23;13.63;;;;;;;12.63;96.26;101669.53;4989790;28;20515;-85
2023/06/08 04:47:31;;;;;;;26.88;13.70;;;;;;;12.63;96.28;101680.09;4989799;28;20129;-83
2023/06/08 04:49:56;;;;;;;24.85;14.15;;;;;;;12.72;96.18;101669.72;5004957;28;20052;-83
2023/06/08 04:52:22;;;;;;;26.77;14.15;;;;;;;12.73;95.95;101665.28;5003478;28;20038;-83
2023/06/08 04:54:52;;;;;;;22.52;13.50;;;;;;;12.80;95.99;101671.81;4989473;28;20060;-83
2023/06/08 04:57:23;;;;;;;30.05;13.27;;;;;;;12.75;95.72;101671.31;5007206;28;20609;-83
2023/06/08 04:59:49;;;;;;;19.48;13.30;;;;;;;12.77;95.51;101679.97;5009156;28;20073;-83
2023/06/08 05:02:14;;;;;;;21.05;13.20;;;;;;;12.77;95.45;101672.88;5007318;28;20117;-84
2023/06/08 05:04:40;;;;;;;27.73;14.48;;;;;;;12.80;95.54;101674.47;5008103;28;20018;-82
2023/06/08 05:07:06;;;;;;;28.52;13.43;;;;;;;12.83;95.54;101676.91;5008436;28;20077;-82
2023/06/08 05:09:31;;;;;;;26.48;14.13;;;;;;;12.85;95.05;101682.94;5005080;28;20380;-83
2023/06/08 05:11:56;;;;;;;21.73;13.13;;;;;;;12.95;94.71;101668.13;5008810;28;20029;-84
2023/06/08 05:14:22;;;;;;;23.65;13.98;;;;;;;12.93;94.27;101670.03;5012842;28;20026;-83
2023/06/08 05:16:47;;;;;;;21.60;13.30;;;;;;;13.00;94.30;101667.78;5012632;28;20028;-83
2023/06/08 05:19:13;;;;;;;25.08;12.98;;;;;;;13.04;94.06;101663.97;5010352;28;20048;-83
2023/06/08 05:21:39;;;;;;;25.27;13.25;;;;;;;13.06;94.02;101678.75;5012550;28;20022;-83
2023/06/08 05:24:06;;;;;;;21.08;13.70;;;;;;;13.09;92.79;101665.34;5011719;28;20108;-83
2023/06/08 05:26:32;;;;;;;26.13;13.57;;;;;;;13.08;92.28;101673.38;5021781;28;20017;-84
2023/06/08 05:28:58;;;;;;;23.20;13.63;;;;;;;13.13;92.63;101669.44;5013627;28;20475;-83
2023/06/08 05:31:23;;;;;;;20.83;13.43;;;;;;;13.14;92.23;101665.84;5013343;28;20037;-83
2023/06/08 05:33:51;;;;;;;20.23;13.73;;;;;;;13.16;91.79;101657.81;5013202;28;20037;-83
2023/06/08 05:36:17;;;;;;;24.55;13.73;;;;;;;13.23;92.04;101669.69;5009517;28;20038;-83
2023/06/08 05:38:42;;;;;;;21.70;13.32;;;;;;;13.31;91.64;101671.78;5012742;28;20379;-83
2023/06/08 05:41:08;;;;;;;22.45;13.35;;;;;;;13.31;91.22;101671.78;5011583;28;20036;-84
2023/06/08 05:43:33;;;;;;;22.42;14.15;;;;;;;13.34;91.83;101663.63;5009495;28;20403;-82
2023/06/08 05:45:58;;;;;;;20.95;13.38;;;;;;;13.39;91.03;101661.47;4993174;28;20054;-84
2023/06/08 05:48:24;;;;;;;22.60;13.35;;;;;;;13.42;90.56;101648.88;5010498;28;20025;-83
2023/06/08 05:50:50;;;;;;;27.10;13.70;;;;;;;13.51;90.68;101659.72;5010014;28;20029;-83
2023/06/08 05:53:15;;;;;;;20.85;13.73;;;;;;;13.62;90.61;101658.00;5009697;28;20026;-83
2023/06/08 05:55:44;;;;;;;22.75;13.68;;;;;;;13.66;89.53;101656.81;5020047;28;20112;-83
2023/06/08 05:58:10;;;;;;;22.35;13.98;;;;;;;13.65;88.98;101654.28;5030800;28;20053;-83
2023/06/08 06:00:38;;;;;;;21.45;13.15;;;;;;;13.68;89.71;101654.91;5016977;28;20029;-82
2023/06/08 06:03:04;;;;;;;25.90;13.70;;;;;;;13.76;89.52;101657.81;5011247;28;20076;-83
2023/06/08 06:05:32;;;;;;;21.23;14.32;;;;;;;13.78;88.64;101661.19;5009803;28;20441;-83
2023/06/08 06:07:58;;;;;;;23.50;14.23;;;;;;;13.83;88.19;101649.44;5012067;28;20029;-84
2023/06/08 06:10:24;;;;;;;24.25;14.82;;;;;;;13.89;88.37;101655.09;5009452;28;20053;-83
2023/06/08 06:12:49;;;;;;;19.13;14.27;;;;;;;13.95;87.96;101659.06;5009234;28;20556;-83
2023/06/08 06:15:15;;;;;;;24.08;15.25;;;;;;;13.94;87.82;101652.09;5011651;28;20110;-83
2023/06/08 06:17:41;;;;;;;23.75;15.18;;;;;;;13.99;87.24;101650.78;5002769;28;20109;-82
2023/06/08 06:20:07;;;;;;;24.90;15.70;;;;;;;14.12;87.93;101648.09;4995105;28;20112;-83
2023/06/08 06:22:33;;;;;;;23.00;15.75;;;;;;;14.21;87.81;101649.19;5011894;28;20025;-83
2023/06/08 06:24:58;;;;;;;26.63;15.32;;;;;;;14.31;87.21;101653.66;5011328;28;20029;-82
2023/06/08 06:27:23;;;;;;;22.90;15.40;;;;;;;14.39;86.89;101653.03;5029832;28;20482;-83
2023/06/08 06:29:49;;;;;;;26.20;15.93;;;;;;;14.43;86.02;101654.56;5032595;28;20039;-83
2023/06/08 06:32:15;;;;;;;26.58;15.98;;;;;;;14.48;86.03;101654.19;5031495;28;20026;-82
2023/06/08 06:34:42;;;;;;;26.20;15.40;;;;;;;14.43;85.36;101656.38;5017625;28;20033;-83
2023/06/08 06:37:08;;;;;;;28.67;16.30;;;;;;;14.40;85.06;101668.81;5009496;28;20129;-83
2023/06/08 06:39:33;;;;;;;22.85;15.25;;;;;;;14.53;86.20;101663.47;5009707;28;20101;-83
2023/06/08 06:42:02;;;;;;;23.45;15.75;;;;;;;14.55;85.16;101666.84;5011321;28;20018;-79
2023/06/08 06:44:28;;;;;;;25.27;14.85;;;;;;;14.65;85.25;101665.16;5012387;28;20072;-79
2023/06/08 06:46:53;;;;;;;25.63;15.30;;;;;;;14.66;84.58;101664.19;5011075;28;20522;-79
2023/06/08 06:49:19;;;;;;;25.05;15.68;;;;;;;14.78;84.57;101664.19;5011544;28;20250;-79
2023/06/08 06:51:45;;;;;;;24.08;15.73;;;;;;;14.87;84.65;101672.28;5009842;28;20037;-79
2023/06/08 06:54:11;;;;;;;28.30;16.40;;;;;;;14.83;83.93;101676.13;4991492;28;20092;-79
2023/06/08 06:56:37;;;;;;;26.85;16.30;;;;;;;15.01;84.27;101669.38;5023310;28;20033;-79
2023/06/08 06:59:03;;;;;;;23.15;15.10;;;;;;;15.09;83.36;101670.56;5030675;28;20018;-75
2023/06/08 07:01:30;;;;;;;23.40;14.90;;;;;;;15.15;83.23;101665.59;5015567;28;20041;-79
2023/06/08 07:03:57;;;;;;;21.20;15.95;;;;;;;15.33;83.80;101668.59;5010459;28;20021;-79
2023/06/08 07:06:26;;;;;;;20.50;15.68;;;;;;;15.50;82.26;101673.38;5023001;28;20037;-77
2023/06/08 07:08:52;;;;;;;22.15;16.50;;;;;;;15.72;80.41;101679.63;5008037;28;20474;-79
2023/06/08 07:11:17;;;;;;;25.08;15.43;;;;;;;15.91;80.42;101675.31;4999944;28;20390;-81
2023/06/08 07:13:43;;;;;;;24.05;14.93;;;;;;;16.12;79.83;101658.56;4997995;28;20026;-81
2023/06/08 07:16:09;;;;;;;26.55;14.98;;;;;;;16.39;79.00;101669.47;5012043;28;20479;-79
2023/06/08 07:18:34;;;;;;;22.30;14.45;;;;;;;16.51;76.77;101673.75;5008579;28;20025;-79
2023/06/08 07:21:00;;;;;;;26.33;14.60;;;;;;;16.75;76.82;101664.66;5008372;28;20026;-80
2023/06/08 07:23:25;;;;;;;26.60;14.82;;;;;;;16.99;76.19;101661.69;5009309;28;20052;-81
2023/06/08 07:25:51;;;;;;;22.00;14.65;;;;;;;17.09;74.78;101678.50;5009394;28;20065;-80
2023/06/08 07:28:18;;;;;;;21.77;13.50;;;;;;;17.21;73.48;101666.78;5008258;28;20453;-81
2023/06/08 07:30:43;;;;;;;19.65;14.05;;;;;;;17.40;74.36;101660.66;5007628;28;20053;-79
2023/06/08 07:33:09;;;;;;;19.60;13.65;;;;;;;17.73;72.87;101654.16;5008187;28;20455;-80
2023/06/08 07:35:34;;;;;;;21.50;13.95;;;;;;;17.92;71.02;101656.78;5005768;28;20025;-80
2023/06/08 07:38:02;;;;;;;20.30;13.85;;;;;;;18.05;70.16;101667.19;5010310;28;20088;-80
2023/06/08 07:40:31;;;;;;;22.30;14.25;;;;;;;18.04;70.49;101655.69;5010817;28;20061;-80
2023/06/08 07:42:56;;;;;;;23.67;14.90;;;;;;;18.27;69.41;101652.69;5007248;28;20061;-80
2023/06/08 07:45:21;;;;;;;20.50;13.57;;;;;;;18.47;69.39;101646.34;5010006;28;20117;-81
2023/06/08 07:47:47;;;;;;;21.98;14.05;;;;;;;18.63;68.03;101641.25;5010641;28;20030;-80
2023/06/08 07:50:12;;;;;;;22.88;14.45;;;;;;;18.68;67.42;101644.31;5008022;28;20427;-80
2023/06/08 07:52:43;;;;;;;21.85;14.18;;;;;;;18.88;66.35;101649.56;5010154;28;20434;-80
2023/06/08 07:55:09;;;;;;;21.80;14.30;;;;;;;18.95;65.92;101648.84;5009578;28;20116;-80
2023/06/08 07:57:36;;;;;;;21.65;14.43;;;;;;;19.06;65.30;101655.78;5007022;28;20157;-79
2023/06/08 08:00:05;;;;;;;19.08;14.20;;;;;;;19.04;65.73;101650.59;5008068;28;20022;-80
2023/06/08 08:02:30;;;;;;;23.08;14.52;;;;;;;19.23;65.86;101651.50;5005243;28;20033;-80
2023/06/08 08:04:57;;;;;;;23.05;13.10;;;;;;;19.59;65.40;101649.69;4994095;28;20466;-79
2023/06/08 08:07:22;;;;;;;22.15;14.10;;;;;;;19.60;63.65;101643.38;4991959;28;20026;-81
2023/06/08 08:09:49;;;;;;;21.02;12.85;;;;;;;19.76;64.61;101648.88;5008789;28;20503;-80
2023/06/08 08:12:14;;;;;;;27.48;14.38;;;;;;;20.00;62.90;101646.38;5006360;28;20026;-80
2023/06/08 08:14:41;;;;;;;20.05;13.38;;;;;;;20.33;62.87;101643.97;5010129;28;20044;-80
2023/06/08 08:17:06;;;;;;;18.85;13.30;;;;;;;20.76;61.47;101637.69;5008987;28;20029;-80
2023/06/08 08:19:32;;;;;;;20.60;13.73;;;;;;;21.00;60.18;101634.28;5009290;28;20022;-80
2023/06/08 08:21:57;;;;;;;17.52;12.75;;;;;;;21.14;60.66;101633.66;5010092;28;20029;-80
2023/06/08 08:24:22;;;;;;;21.92;12.27;;;;;;;21.22;60.67;101632.88;5009420;28;20113;-82
2023/06/08 08:26:53;;;;;;;23.25;13.63;;;;;;;21.31;59.32;101633.75;5022658;28;20025;-81
2023/06/08 08:29:18;;;;;;;19.60;12.63;;;;;;;21.25;58.58;101630.72;5027577;28;20101;-82
2023/06/08 08:31:45;;;;;;;23.10;12.35;;;;;;;21.33;58.73;101627.22;5031043;28;20038;-81
2023/06/08 08:34:11;;;;;;;22.70;13.15;;;;;;;21.71;58.98;101633.81;5027902;28;20096;-80
2023/06/08 08:36:38;;;;;;;15.65;11.70;;;;;;;21.97;58.22;101622.06;5029338;28;20117;-80
2023/06/08 08:39:04;;;;;;;20.67;12.43;;;;;;;21.99;57.51;101633.44;5028358;28;20017;-80
2023/06/08 08:41:32;;;;;;;19.58;12.57;;;;;;;22.19;58.45;101632.13;5029309;28;20363;-83
2023/06/08 08:44:03;;;;;;;21.55;13.43;;;;;;;22.30;55.71;101629.09;5029920;28;20565;-81
2023/06/08 08:46:33;;;;;;;21.17;12.48;;;;;;;22.40;55.89;101632.41;5027435;28;20045;-80
2023/06/08 08:49:06;;;;;;;20.55;12.13;;;;;;;22.41;55.38;101628.72;5030008;28;20563;-80
2023/06/08 08:51:32;;;;;;;18.30;13.23;;;;;;;22.15;54.57;101630.78;5028839;28;20478;-81
2023/06/08 08:54:02;;;;;;;21.58;13.15;;;;;;;22.40;54.77;101631.56;5029746;28;20548;-83
2023/06/08 08:56:30;;;;;;;21.65;11.90;;;;;;;22.49;55.89;101615.31;5010456;28;20034;-84
2023/06/08 08:58:56;;;;;;;21.58;12.18;;;;;;;22.66;55.15;101620.59;4990836;28;20022;-80
2023/06/08 09:01:22;;;;;;;18.83;13.13;;;;;;;22.79;54.15;101623.56;5006866;28;20037;-80
2023/06/08 09:03:52;;;;;;;24.88;12.60;;;;;;;22.88;55.33;101619.88;5011001;28;20386;-84
2023/06/08 09:06:17;;;;;;;20.02;11.27;;;;;;;22.86;54.63;101615.69;5010699;28;20026;-80
2023/06/08 09:08:44;;;;;;;15.65;10.95;;;;;;;22.79;54.59;101620.88;5009315;28;20026;-79
2023/06/08 09:11:10;;;;;;;19.75;11.38;;;;;;;23.15;54.94;101621.22;5008134;28;20026;-78
2023/06/08 09:13:38;;;;;;;16.95;12.20;;;;;;;22.96;53.66;101622.53;5024518;28;20470;-77
2023/06/08 09:16:11;;;;;;;18.08;11.88;;;;;;;23.04;53.71;101627.84;5008063;28;20045;-79
2023/06/08 09:18:38;;;;;;;16.88;11.07;;;;;;;23.05;54.30;101621.47;5009078;28;20526;-78
2023/06/08 09:21:23;;;;;;;24.75;11.70;;;;;;;23.22;54.81;101626.75;5008111;28;20498;-77
2023/06/08 09:24:12;;;;;;;15.50;10.82;;;;;;;23.07;54.33;101619.44;5007890;28;20045;-77
2023/06/08 09:26:53;;;;;;;15.43;9.73;;;;;;;22.98;54.14;101615.13;5021073;28;20052;-78
2023/06/08 09:29:42;;;;;;;15.70;9.63;;;;;;;23.24;53.86;101613.97;5026692;28;20029;-78
2023/06/08 09:32:09;;;;;;;16.42;9.43;;;;;;;23.46;53.45;101607.78;5030365;28;20045;-78
2023/06/08 09:34:55;;;;;;;11.95;9.90;;;;;;;23.53;53.00;101611.41;5028654;28;20021;-82
2023/06/08 09:37:31;;;;;;;13.45;9.95;;;;;;;23.44;52.38;101612.50;5026803;28;20025;-78
2023/06/08 09:39:58;;;;;;;15.27;8.85;;;;;;;23.58;52.35;101602.84;5028784;28;20025;-77
2023/06/08 09:42:50;;;;;;;16.00;9.63;;;;;;;23.75;52.42;101607.06;5029162;28;20025;-77
2023/06/08 09:45:17;;;;;;;14.40;9.38;;;;;;;23.83;52.26;101595.41;5030184;28;20082;-77
2023/06/08 09:47:43;;;;;;;13.82;8.35;;;;;;;24.18;51.72;101592.03;5029441;28;20045;-77
2023/06/08 09:50:09;;;;;;;11.40;8.60;;;;;;;24.31;50.64;101603.00;5027858;28;20493;-77
2023/06/08 09:52:36;;;;;;;14.75;9.90;;;;;;;24.40;50.93;101590.31;5028186;28;20104;-77
2023/06/08 09:55:03;;;;;;;13.95;8.75;;;;;;;24.43;50.06;101584.56;5026084;28;20117;-76
2023/06/08 09:57:35;;;;;;;12.63;9.30;;;;;;;24.47;49.88;101590.41;5004787;28;20049;-77
2023/06/08 10:00:14;;;;;;;14.52;10.13;;;;;;;24.60;49.81;101583.34;4993673;28;20003;-77
2023/06/08 10:03:22;;;;;;;16.38;9.70;;;;;;;24.76;51.00;101586.84;4993551;28;20151;-77
2023/06/08 10:05:51;;;;;;;14.52;9.48;;;;;;;24.55;49.01;101582.25;4993213;28;20105;-77
2023/06/08 10:08:21;;;;;;;17.98;9.75;;;;;;;24.45;49.50;101581.69;4992581;28;20246;-77
2023/06/08 10:10:47;;;;;;;14.90;8.70;;;;;;;24.54;49.44;101583.25;4995434;28;20490;-76
2023/06/08 10:13:14;;;;;;;11.73;7.85;;;;;;;24.80;49.76;101567.44;5011456;28;20034;-76
2023/06/08 10:15:40;;;;;;;12.07;7.60;;;;;;;24.85;49.97;101578.50;5010915;28;20041;-76
2023/06/08 10:18:07;;;;;;;14.75;7.25;;;;;;;24.79;48.48;101573.84;5009750;28;20025;-76
2023/06/08 10:20:34;;;;;;;11.85;8.02;;;;;;;24.73;48.70;101571.91;5010825;28;20030;-76
2023/06/08 10:23:06;;;;;;;12.77;8.32;;;;;;;24.53;48.44;101573.53;5011696;28;20028;-76
2023/06/08 10:25:33;;;;;;;;;;;;;;;24.96;49.67;101575.28;5015113;28;20083;-76
2023/06/08 10:28:05;;;;;;;10.55;6.30;;;;;;;24.96;47.31;101572.59;5031400;28;20017;-77
2023/06/08 10:30:41;;;;;;;9.18;5.70;;;;;;;24.76;46.62;101566.13;5031442;28;20048;-75
2023/06/08 10:33:15;;;;;;;15.43;5.80;;;;;;;24.76;46.74;101563.44;5029854;28;20029;-77
2023/06/08 10:35:41;;;;;;;6.05;4.38;;;;;;;24.71;45.42;101562.34;5032305;28;20025;-77
2023/06/08 10:38:12;;;;;;;7.78;4.82;;;;;;;24.82;46.54;101551.94;5031089;28;20037;-76
2023/06/08 10:40:45;;;;;;;9.02;4.85;;;;;;;25.03;47.21;101550.31;5031417;28;20028;-76
2023/06/08 10:43:11;;;;;;;10.43;5.57;;;;;;;25.26;47.84;101548.28;5021364;28;20064;-76
2023/06/08 10:45:40;;;;;;;9.05;5.03;;;;;;;25.36;46.17;101543.41;5010075;28;20071;-76
2023/06/08 10:48:10;;;;;;;11.77;6.03;;;;;;;25.65;46.44;101544.28;5008330;28;20034;-77
2023/06/08 10:50:40;;;;;;;10.85;6.60;;;;;;;25.73;45.76;101541.47;5011159;28;20065;-76
2023/06/08 10:53:06;;;;;;;10.05;5.60;;;;;;;25.86;45.20;101538.84;5010225;28;20026;-76
2023/06/08 10:55:31;;;;;;;11.32;5.70;;;;;;;25.82;44.54;101538.41;5018264;28;20505;-76
2023/06/08 10:58:15;;;;;;;12.02;5.63;;;;;;;25.88;44.94;101540.31;5018456;28;20022;-76
2023/06/08 11:00:42;;;;;;;15.15;6.22;;;;;;;25.76;44.94;101535.69;5009268;28;20048;-77
2023/06/08 11:03:10;;;;;;;6.85;5.30;;;;;;;25.81;45.26;101538.63;5009046;28;20028;-76
2023/06/08 11:05:40;;;;;;;11.90;5.78;;;;;;;25.83;44.16;101540.09;5010738;28;20033;-77
2023/06/08 11:08:10;;;;;;;11.63;5.57;;;;;;;25.75;44.79;101531.31;5006270;28;20033;-76
2023/06/08 11:10:39;;;;;;;12.43;6.30;;;;;;;25.69;44.07;101532.09;5007235;28;20026;-76
2023/06/08 11:13:10;;;;;;;8.38;5.57;;;;;;;25.41;44.90;101527.50;4997721;28;20033;-77
2023/06/08 11:15:42;;;;;;;14.77;5.88;;;;;;;25.51;45.84;101525.28;5016492;28;20029;-77